Skip Navigation Links
NOAA logo - Click to go to the NOAA homepage
NOAA's National Weather Service
Alaska Aviation Weather Unit
  NWS logo - Click to go to the NWS homepage
Left Navbar Graphic     23 AKDT = 07 GMT

   
NOAA is celebrating 200 years of science, service, and stewardship. Visit the NOAA 200th celebration Web site to learn more.
USA.gov is the U.S. Government's official Web portal to all Federal, state and local government Web resources and services.
Facebook
NWS on Facebook

Important Change Regarding the AAWU Web Presence

 

Over the last several months, the AAWU has been working to navigate its webpages to a nationally supported server. Security, as well as other needs, have necessitated the change.  In the process, we have made an effort to enhance the functionality of our website, as well as some of our products. As of June 20, 2017, aawu.arh.noaa.gov will be discontinued. The new AAWU web address is weather.gov/aawu. It is now live and will run in-parallel with the old site until it is discontinued. Please send any feedback or questions regarding the new webpages to nws.ar.aawu.webauthors@noaa.gov.  Thank you for your patience during this time of transition.
AAWU Home :: Display TAF Add Bookmark
TAF PAVD 240521Z 2406/2506 27006KT P6SM SCT060 BKN200
     FM241500 00000KT 6SM -RA SCT015 OVC025
     FM242100 VRB04KT 4SM -RA BR OVC015 AMD LTD TO CLD VIS AND
      WIND=

PAVD 240116Z 27011G16KT 10SM SCT060 SCT100 13/02 A3002= METAR PAVD 240116Z 27011G16KT 10SM SCT060 SCT100 13/02 A3002 RMK AO1 0047Z WEA: NONE TWR WND 22012KT= PAVD 240136Z 28011KT 10SM SCT060 SCT100 13/02 A3002= METAR PAVD 240136Z 28011KT 10SM SCT060 SCT100 13/02 A3002 RMK AO1 0047Z WEA: NONE TWR WND 22012KT= METAR PAVD 240156Z 27012KT 10SM SCT060 SCT100 13/02 A3002= METAR PAVD 240216Z 28012KT 10SM SCT060 SCT100 13/02 A3003= METAR PAVD 240216Z 28012KT 10SM SCT060 SCT100 13/02 A3003 RMK AO1 0147Z WEA: NONE TWR WND 25012KT= PAVD 240236Z 28012KT 10SM SCT060 SCT100 12/02 A3003= METAR PAVD 240236Z 28012KT 10SM SCT060 SCT100 12/02 A3003 RMK AO1 0147Z WEA: NONE TWR WND 25012KT= METAR PAVD 240256Z 28010KT 10SM SCT060 SCT100 12/02 A3003= PAVD 240316Z 28012KT 10SM SCT060 SCT100 12/02 A3004= METAR PAVD 240316Z 28012KT 10SM SCT060 SCT100 12/02 A3004 RMK AO1 0247Z WEA: NONE TWR WND 25010KT= METAR PAVD 240336Z 27011KT 10SM SCT060 SCT100 12/02 A3004= METAR PAVD 240336Z 27011KT 10SM SCT060 SCT100 12/02 A3004 RMK AO1 0247Z WEA: NONE TWR WND 25010KT= METAR PAVD 240356Z 27010KT 10SM SCT060 SCT100 12/02 A3004= PAVD 240416Z 28011KT 10SM SCT060 SCT100 12/03 A3005= METAR PAVD 240416Z 28011KT 10SM SCT060 SCT100 12/03 A3005 RMK AO1 0347Z WEA: NONE TWR WND 24010KT= METAR PAVD 240436Z 28013KT 10SM SCT060 SCT100 11/02 A3006= METAR PAVD 240436Z 28013KT 10SM SCT060 SCT100 11/02 A3006 RMK AO1 0347Z WEA: NONE TWR WND 24010KT= METAR PAVD 240456Z 28012KT 10SM FEW040 SCT065 SCT100 11/02 A3006= PAVD 240516Z 27011KT 10SM FEW040 SCT065 SCT100 11/01 A3006= METAR PAVD 240516Z 27011KT 10SM FEW040 SCT065 SCT100 11/01 A3006 RMK AO1 0447Z WEA: NONE TWR WND 25013KT= PAVD 240536Z 28010KT 10SM FEW040 SCT065 SCT100 11/01 A3006= METAR PAVD 240536Z 28010KT 10SM FEW040 SCT065 SCT100 11/01 A3006 RMK AO1 0447Z WEA: NONE TWR WND 25013KT= METAR PAVD 240556Z 27010KT 10SM FEW040 SCT065 SCT100 10/01 A3006= PAVD 240616Z 27012KT 10SM OVC060 10/01 A3007= METAR PAVD 240616Z 27012KT 10SM OVC060 10/01 A3007 RMK AO1= PAVD 240636Z 27007KT 10SM OVC060 10/01 A3008= METAR PAVD 240636Z 27007KT 10SM OVC060 10/01 A3008 RMK AO1 = METAR PAVD 240656Z 24005KT 10SM OVC060 10/01 A3009= PAVD 240716Z 00000KT 10SM BKN047 OVC060 09/02 A3010= METAR PAVD 240716Z 00000KT 10SM BKN047 OVC060 09/02 A3010 RMK AO1= PAVD 240736Z 13003KT 10SM SCT047 BKN060 09/02 A3010= METAR PAVD 240736Z 13003KT 10SM SCT047 BKN060 09/02 A3010 RMK AO1=
 Alaska TAF Map

NOAA's National Weather Service
Alaska Aviation Weather Unit
6930 Sand Lake Road
Anchorage, AK 99502-1845
Disclaimer
Credits
Glossary
Privacy Policy
About Us
Career Opportunities
Contact AAWU Internet Services Site last modified: April, 17th 2012